sensor_id;sensor_type;location;lat;lon;timestamp;P1;durP1;ratioP1;P2;durP2;ratioP2
49235;SDS011;35067;48.134;8.378;2023-06-10T00:00:29;6.47;;;5.90;;
49235;SDS011;35067;48.134;8.378;2023-06-10T00:01:31;5.75;;;5.25;;
49235;SDS011;35067;48.134;8.378;2023-06-10T00:02:34;6.60;;;5.97;;
49235;SDS011;35067;48.134;8.378;2023-06-10T00:03:34;6.23;;;5.63;;
49235;SDS011;35067;48.134;8.378;2023-06-10T00:04:36;6.15;;;5.65;;
49235;SDS011;35067;48.134;8.378;2023-06-10T00:05:37;5.60;;;5.10;;
49235;SDS011;35067;48.134;8.378;2023-06-10T00:06:38;6.35;;;5.75;;
49235;SDS011;35067;48.134;8.378;2023-06-10T00:07:39;5.93;;;5.43;;
49235;SDS011;35067;48.134;8.378;2023-06-10T00:08:41;5.72;;;5.25;;
49235;SDS011;35067;48.134;8.378;2023-06-10T00:09:42;5.95;;;5.45;;
49235;SDS011;35067;48.134;8.378;2023-06-10T00:10:43;6.40;;;5.83;;
49235;SDS011;35067;48.134;8.378;2023-06-10T00:11:44;8.68;;;5.93;;
49235;SDS011;35067;48.134;8.378;2023-06-10T00:12:45;5.93;;;5.38;;
49235;SDS011;35067;48.134;8.378;2023-06-10T00:13:47;5.20;;;4.72;;
49235;SDS011;35067;48.134;8.378;2023-06-10T00:14:49;5.93;;;5.32;;
49235;SDS011;35067;48.134;8.378;2023-06-10T00:15:51;6.22;;;5.63;;
49235;SDS011;35067;48.134;8.378;2023-06-10T00:16:52;7.00;;;5.77;;
49235;SDS011;35067;48.134;8.378;2023-06-10T00:17:52;5.87;;;5.37;;
49235;SDS011;35067;48.134;8.378;2023-06-10T00:18:55;6.25;;;5.65;;
49235;SDS011;35067;48.134;8.378;2023-06-10T00:19:56;5.87;;;5.37;;
49235;SDS011;35067;48.134;8.378;2023-06-10T00:20:57;6.30;;;5.70;;
49235;SDS011;35067;48.134;8.378;2023-06-10T00:22:04;5.90;;;5.32;;
49235;SDS011;35067;48.134;8.378;2023-06-10T00:23:05;5.25;;;4.82;;
49235;SDS011;35067;48.134;8.378;2023-06-10T00:24:08;6.22;;;5.63;;
49235;SDS011;35067;48.134;8.378;2023-06-10T00:25:11;6.53;;;5.05;;
49235;SDS011;35067;48.134;8.378;2023-06-10T00:26:12;5.60;;;5.10;;
49235;SDS011;35067;48.134;8.378;2023-06-10T00:27:15;6.00;;;5.50;;
49235;SDS011;35067;48.134;8.378;2023-06-10T00:28:15;6.00;;;5.50;;
49235;SDS011;35067;48.134;8.378;2023-06-10T00:29:17;6.40;;;5.80;;
49235;SDS011;35067;48.134;8.378;2023-06-10T00:30:17;6.20;;;5.70;;
49235;SDS011;35067;48.134;8.378;2023-06-10T00:31:18;7.33;;;5.40;;
49235;SDS011;35067;48.134;8.378;2023-06-10T00:32:19;6.77;;;5.50;;
49235;SDS011;35067;48.134;8.378;2023-06-10T00:33:20;6.53;;;5.93;;
49235;SDS011;35067;48.134;8.378;2023-06-10T00:34:20;7.17;;;5.50;;
49235;SDS011;35067;48.134;8.378;2023-06-10T00:35:22;6.38;;;5.78;;
49235;SDS011;35067;48.134;8.378;2023-06-10T00:36:23;5.80;;;5.28;;
49235;SDS011;35067;48.134;8.378;2023-06-10T00:37:23;7.90;;;5.60;;
49235;SDS011;35067;48.134;8.378;2023-06-10T00:38:25;5.72;;;5.13;;
49235;SDS011;35067;48.134;8.378;2023-06-10T00:39:26;6.27;;;5.17;;
49235;SDS011;35067;48.134;8.378;2023-06-10T00:40:27;5.63;;;5.13;;
49235;SDS011;35067;48.134;8.378;2023-06-10T00:41:28;5.87;;;5.33;;
49235;SDS011;35067;48.134;8.378;2023-06-10T00:42:29;5.88;;;5.28;;
49235;SDS011;35067;48.134;8.378;2023-06-10T00:43:29;5.80;;;4.93;;
49235;SDS011;35067;48.134;8.378;2023-06-10T00:44:30;6.13;;;5.27;;
49235;SDS011;35067;48.134;8.378;2023-06-10T00:45:31;6.03;;;5.30;;
49235;SDS011;35067;48.134;8.378;2023-06-10T00:46:32;6.80;;;6.20;;
49235;SDS011;35067;48.134;8.378;2023-06-10T00:47:33;5.80;;;5.20;;
49235;SDS011;35067;48.134;8.378;2023-06-10T00:48:35;6.47;;;5.47;;
49235;SDS011;35067;48.134;8.378;2023-06-10T00:49:36;5.80;;;5.30;;
49235;SDS011;35067;48.134;8.378;2023-06-10T00:50:38;5.50;;;4.93;;
49235;SDS011;35067;48.134;8.378;2023-06-10T00:51:39;6.13;;;5.40;;
49235;SDS011;35067;48.134;8.378;2023-06-10T00:52:42;5.55;;;5.05;;
49235;SDS011;35067;48.134;8.378;2023-06-10T00:53:46;6.03;;;4.93;;
49235;SDS011;35067;48.134;8.378;2023-06-10T00:54:47;6.78;;;5.20;;
49235;SDS011;35067;48.134;8.378;2023-06-10T00:55:48;6.23;;;5.43;;
49235;SDS011;35067;48.134;8.378;2023-06-10T00:56:49;5.85;;;5.25;;
49235;SDS011;35067;48.134;8.378;2023-06-10T00:57:50;5.73;;;5.13;;
49235;SDS011;35067;48.134;8.378;2023-06-10T00:58:51;5.63;;;5.13;;
49235;SDS011;35067;48.134;8.378;2023-06-10T00:59:53;5.80;;;5.30;;
49235;SDS011;35067;48.134;8.378;2023-06-10T01:00:54;5.70;;;5.10;;
49235;SDS011;35067;48.134;8.378;2023-06-10T01:01:55;6.90;;;6.20;;
49235;SDS011;35067;48.134;8.378;2023-06-10T01:02:57;6.50;;;5.45;;
49235;SDS011;35067;48.134;8.378;2023-06-10T01:03:57;6.00;;;5.47;;
49235;SDS011;35067;48.134;8.378;2023-06-10T01:04:59;11.20;;;5.53;;
49235;SDS011;35067;48.134;8.378;2023-06-10T01:06:06;5.30;;;4.80;;
49235;SDS011;35067;48.134;8.378;2023-06-10T01:07:23;5.93;;;5.43;;
49235;SDS011;35067;48.134;8.378;2023-06-10T01:08:32;5.90;;;5.30;;
49235;SDS011;35067;48.134;8.378;2023-06-10T01:11:17;5.78;;;5.18;;
49235;SDS011;35067;48.134;8.378;2023-06-10T01:13:41;5.32;;;4.82;;
49235;SDS011;35067;48.134;8.378;2023-06-10T01:14:45;6.20;;;5.60;;
49235;SDS011;35067;48.134;8.378;2023-06-10T01:15:48;6.13;;;5.50;;
49235;SDS011;35067;48.134;8.378;2023-06-10T01:16:51;7.05;;;5.63;;
49235;SDS011;35067;48.134;8.378;2023-06-10T01:17:56;5.85;;;5.30;;
49235;SDS011;35067;48.134;8.378;2023-06-10T01:18:59;7.40;;;5.47;;
49235;SDS011;35067;48.134;8.378;2023-06-10T01:20:00;6.28;;;5.68;;
49235;SDS011;35067;48.134;8.378;2023-06-10T01:21:04;6.72;;;5.72;;
49235;SDS011;35067;48.134;8.378;2023-06-10T01:22:04;6.70;;;5.70;;
49235;SDS011;35067;48.134;8.378;2023-06-10T01:23:05;6.17;;;5.27;;
49235;SDS011;35067;48.134;8.378;2023-06-10T01:24:07;7.38;;;5.75;;
49235;SDS011;35067;48.134;8.378;2023-06-10T01:25:08;5.93;;;5.13;;
49235;SDS011;35067;48.134;8.378;2023-06-10T01:26:10;7.15;;;5.63;;
49235;SDS011;35067;48.134;8.378;2023-06-10T01:27:12;5.70;;;5.20;;
49235;SDS011;35067;48.134;8.378;2023-06-10T01:28:24;6.85;;;5.30;;
49235;SDS011;35067;48.134;8.378;2023-06-10T01:29:40;6.07;;;5.35;;
49235;SDS011;35067;48.134;8.378;2023-06-10T01:32:34;6.85;;;5.30;;
49235;SDS011;35067;48.134;8.378;2023-06-10T01:33:47;5.93;;;5.43;;
49235;SDS011;35067;48.134;8.378;2023-06-10T01:34:52;5.95;;;5.20;;
49235;SDS011;35067;48.134;8.378;2023-06-10T01:35:58;7.57;;;5.90;;
49235;SDS011;35067;48.134;8.378;2023-06-10T01:36:59;9.52;;;5.97;;
49235;SDS011;35067;48.134;8.378;2023-06-10T01:38:01;5.93;;;5.32;;
49235;SDS011;35067;48.134;8.378;2023-06-10T01:39:04;6.45;;;5.72;;
49235;SDS011;35067;48.134;8.378;2023-06-10T01:40:06;6.47;;;5.85;;
49235;SDS011;35067;48.134;8.378;2023-06-10T01:41:07;6.32;;;5.70;;
49235;SDS011;35067;48.134;8.378;2023-06-10T01:42:10;6.20;;;5.35;;
49235;SDS011;35067;48.134;8.378;2023-06-10T01:43:12;6.32;;;5.50;;
49235;SDS011;35067;48.134;8.378;2023-06-10T01:44:13;6.77;;;5.70;;
49235;SDS011;35067;48.134;8.378;2023-06-10T01:45:19;6.30;;;5.70;;
49235;SDS011;35067;48.134;8.378;2023-06-10T01:46:20;6.40;;;5.80;;
49235;SDS011;35067;48.134;8.378;2023-06-10T01:47:21;6.65;;;5.95;;
49235;SDS011;35067;48.134;8.378;2023-06-10T01:48:22;6.50;;;5.50;;
49235;SDS011;35067;48.134;8.378;2023-06-10T01:49:23;6.17;;;5.47;;
49235;SDS011;35067;48.134;8.378;2023-06-10T01:50:26;5.90;;;5.40;;
49235;SDS011;35067;48.134;8.378;2023-06-10T01:51:27;7.07;;;6.20;;
49235;SDS011;35067;48.134;8.378;2023-06-10T01:52:27;6.40;;;5.80;;
49235;SDS011;35067;48.134;8.378;2023-06-10T01:53:28;6.60;;;5.90;;
49235;SDS011;35067;48.134;8.378;2023-06-10T01:54:29;6.40;;;5.70;;
49235;SDS011;35067;48.134;8.378;2023-06-10T01:55:29;9.47;;;5.80;;
49235;SDS011;35067;48.134;8.378;2023-06-10T01:56:30;6.30;;;5.70;;
49235;SDS011;35067;48.134;8.378;2023-06-10T01:57:31;6.40;;;5.57;;
49235;SDS011;35067;48.134;8.378;2023-06-10T01:58:32;6.32;;;5.72;;
49235;SDS011;35067;48.134;8.378;2023-06-10T01:59:35;6.38;;;5.78;;
49235;SDS011;35067;48.134;8.378;2023-06-10T02:00:37;6.93;;;5.72;;
49235;SDS011;35067;48.134;8.378;2023-06-10T02:01:38;8.07;;;5.97;;
49235;SDS011;35067;48.134;8.378;2023-06-10T02:02:38;6.30;;;5.70;;
49235;SDS011;35067;48.134;8.378;2023-06-10T02:03:39;5.97;;;5.37;;
49235;SDS011;35067;48.134;8.378;2023-06-10T02:04:40;6.67;;;5.97;;
49235;SDS011;35067;48.134;8.378;2023-06-10T02:05:41;6.00;;;5.40;;
49235;SDS011;35067;48.134;8.378;2023-06-10T02:06:42;6.57;;;5.87;;
49235;SDS011;35067;48.134;8.378;2023-06-10T02:07:45;6.75;;;6.07;;
49235;SDS011;35067;48.134;8.378;2023-06-10T02:08:46;6.90;;;6.20;;
49235;SDS011;35067;48.134;8.378;2023-06-10T02:09:46;6.33;;;5.73;;
49235;SDS011;35067;48.134;8.378;2023-06-10T02:10:47;6.17;;;5.57;;
49235;SDS011;35067;48.134;8.378;2023-06-10T02:11:48;7.20;;;5.53;;
49235;SDS011;35067;48.134;8.378;2023-06-10T02:12:49;7.30;;;6.18;;
49235;SDS011;35067;48.134;8.378;2023-06-10T02:13:50;8.43;;;5.40;;
49235;SDS011;35067;48.134;8.378;2023-06-10T02:14:51;6.40;;;5.75;;
49235;SDS011;35067;48.134;8.378;2023-06-10T02:15:51;6.37;;;5.77;;
49235;SDS011;35067;48.134;8.378;2023-06-10T02:16:54;7.35;;;6.65;;
49235;SDS011;35067;48.134;8.378;2023-06-10T02:17:56;8.82;;;5.80;;
49235;SDS011;35067;48.134;8.378;2023-06-10T02:18:57;6.78;;;5.90;;
49235;SDS011;35067;48.134;8.378;2023-06-10T02:20:00;6.28;;;5.55;;
49235;SDS011;35067;48.134;8.378;2023-06-10T02:21:04;6.35;;;5.75;;
49235;SDS011;35067;48.134;8.378;2023-06-10T02:22:07;9.23;;;6.78;;
49235;SDS011;35067;48.134;8.378;2023-06-10T02:23:07;7.80;;;5.83;;
49235;SDS011;35067;48.134;8.378;2023-06-10T02:24:09;6.65;;;5.80;;
49235;SDS011;35067;48.134;8.378;2023-06-10T02:25:10;6.70;;;6.00;;
49235;SDS011;35067;48.134;8.378;2023-06-10T02:26:11;6.93;;;6.33;;
49235;SDS011;35067;48.134;8.378;2023-06-10T02:27:11;7.00;;;6.30;;
49235;SDS011;35067;48.134;8.378;2023-06-10T02:28:13;7.32;;;5.95;;
49235;SDS011;35067;48.134;8.378;2023-06-10T02:29:16;6.57;;;5.97;;
49235;SDS011;35067;48.134;8.378;2023-06-10T02:30:16;7.10;;;6.40;;
49235;SDS011;35067;48.134;8.378;2023-06-10T02:31:17;7.80;;;6.13;;
49235;SDS011;35067;48.134;8.378;2023-06-10T02:32:18;6.87;;;5.43;;
49235;SDS011;35067;48.134;8.378;2023-06-10T02:33:19;7.50;;;6.00;;
49235;SDS011;35067;48.134;8.378;2023-06-10T02:34:21;7.00;;;6.35;;
49235;SDS011;35067;48.134;8.378;2023-06-10T02:35:22;7.57;;;5.70;;
49235;SDS011;35067;48.134;8.378;2023-06-10T02:36:24;7.60;;;6.07;;
49235;SDS011;35067;48.134;8.378;2023-06-10T02:37:28;10.65;;;6.30;;
49235;SDS011;35067;48.134;8.378;2023-06-10T02:38:29;6.85;;;6.25;;
49235;SDS011;35067;48.134;8.378;2023-06-10T02:39:29;7.23;;;6.50;;
49235;SDS011;35067;48.134;8.378;2023-06-10T02:40:30;6.68;;;5.97;;
49235;SDS011;35067;48.134;8.378;2023-06-10T02:41:32;8.05;;;5.82;;
49235;SDS011;35067;48.134;8.378;2023-06-10T02:42:32;7.00;;;6.30;;
49235;SDS011;35067;48.134;8.378;2023-06-10T02:43:33;7.20;;;6.37;;
49235;SDS011;35067;48.134;8.378;2023-06-10T02:44:34;6.65;;;5.68;;
49235;SDS011;35067;48.134;8.378;2023-06-10T02:45:35;7.90;;;5.70;;
49235;SDS011;35067;48.134;8.378;2023-06-10T02:46:36;7.07;;;5.87;;
49235;SDS011;35067;48.134;8.378;2023-06-10T02:47:37;7.80;;;7.00;;
49235;SDS011;35067;48.134;8.378;2023-06-10T02:48:43;6.95;;;6.25;;
49235;SDS011;35067;48.134;8.378;2023-06-10T02:49:45;8.15;;;6.30;;
49235;SDS011;35067;48.134;8.378;2023-06-10T02:50:46;6.73;;;6.03;;
49235;SDS011;35067;48.134;8.378;2023-06-10T02:51:47;5.97;;;5.37;;
49235;SDS011;35067;48.134;8.378;2023-06-10T02:52:48;6.93;;;6.23;;
49235;SDS011;35067;48.134;8.378;2023-06-10T02:53:49;8.13;;;6.18;;
49235;SDS011;35067;48.134;8.378;2023-06-10T02:54:50;6.77;;;6.07;;
49235;SDS011;35067;48.134;8.378;2023-06-10T02:55:51;7.37;;;6.47;;
49235;SDS011;35067;48.134;8.378;2023-06-10T02:56:51;6.87;;;6.17;;
49235;SDS011;35067;48.134;8.378;2023-06-10T02:57:54;8.65;;;6.25;;
49235;SDS011;35067;48.134;8.378;2023-06-10T02:58:55;7.70;;;6.90;;
49235;SDS011;35067;48.134;8.378;2023-06-10T02:59:56;7.20;;;6.50;;
49235;SDS011;35067;48.134;8.378;2023-06-10T03:00:58;7.30;;;6.22;;
49235;SDS011;35067;48.134;8.378;2023-06-10T03:01:59;7.30;;;6.60;;
49235;SDS011;35067;48.134;8.378;2023-06-10T03:03:01;6.43;;;5.82;;
49235;SDS011;35067;48.134;8.378;2023-06-10T03:04:05;11.07;;;6.65;;
49235;SDS011;35067;48.134;8.378;2023-06-10T03:05:07;6.70;;;6.00;;
49235;SDS011;35067;48.134;8.378;2023-06-10T03:06:11;7.30;;;6.07;;
49235;SDS011;35067;48.134;8.378;2023-06-10T03:07:12;6.05;;;5.45;;
49235;SDS011;35067;48.134;8.378;2023-06-10T03:08:14;6.90;;;6.20;;
49235;SDS011;35067;48.134;8.378;2023-06-10T03:09:14;6.23;;;5.63;;
49235;SDS011;35067;48.134;8.378;2023-06-10T03:10:15;7.63;;;5.63;;
49235;SDS011;35067;48.134;8.378;2023-06-10T03:11:16;9.60;;;6.10;;
49235;SDS011;35067;48.134;8.378;2023-06-10T03:12:17;8.67;;;6.40;;
49235;SDS011;35067;48.134;8.378;2023-06-10T03:13:19;8.75;;;6.20;;
49235;SDS011;35067;48.134;8.378;2023-06-10T03:14:19;7.00;;;6.30;;
49235;SDS011;35067;48.134;8.378;2023-06-10T03:15:20;7.83;;;6.53;;
49235;SDS011;35067;48.134;8.378;2023-06-10T03:16:21;7.35;;;6.53;;
49235;SDS011;35067;48.134;8.378;2023-06-10T03:17:22;7.78;;;6.22;;
49235;SDS011;35067;48.134;8.378;2023-06-10T03:18:27;9.00;;;6.75;;
49235;SDS011;35067;48.134;8.378;2023-06-10T03:19:28;9.27;;;7.70;;
49235;SDS011;35067;48.134;8.378;2023-06-10T03:20:30;6.88;;;6.15;;
49235;SDS011;35067;48.134;8.378;2023-06-10T03:21:31;8.00;;;6.20;;
49235;SDS011;35067;48.134;8.378;2023-06-10T03:22:32;7.50;;;5.90;;
49235;SDS011;35067;48.134;8.378;2023-06-10T03:23:33;7.50;;;6.40;;
49235;SDS011;35067;48.134;8.378;2023-06-10T03:24:33;7.33;;;6.63;;
49235;SDS011;35067;48.134;8.378;2023-06-10T03:25:35;7.45;;;6.60;;
49235;SDS011;35067;48.134;8.378;2023-06-10T03:26:36;6.70;;;6.00;;
49235;SDS011;35067;48.134;8.378;2023-06-10T03:27:37;7.77;;;6.50;;
49235;SDS011;35067;48.134;8.378;2023-06-10T03:28:38;7.70;;;6.63;;
49235;SDS011;35067;48.134;8.378;2023-06-10T03:29:38;7.13;;;6.43;;
49235;SDS011;35067;48.134;8.378;2023-06-10T03:30:39;6.90;;;6.20;;
49235;SDS011;35067;48.134;8.378;2023-06-10T03:31:40;7.50;;;6.78;;
49235;SDS011;35067;48.134;8.378;2023-06-10T03:32:41;7.40;;;6.70;;
49235;SDS011;35067;48.134;8.378;2023-06-10T03:33:43;8.50;;;7.57;;
49235;SDS011;35067;48.134;8.378;2023-06-10T03:34:43;7.23;;;6.33;;
49235;SDS011;35067;48.134;8.378;2023-06-10T03:35:45;7.63;;;6.53;;
49235;SDS011;35067;48.134;8.378;2023-06-10T03:36:46;7.90;;;7.10;;
49235;SDS011;35067;48.134;8.378;2023-06-10T03:37:47;7.22;;;6.53;;
49235;SDS011;35067;48.134;8.378;2023-06-10T03:38:48;8.18;;;6.63;;
49235;SDS011;35067;48.134;8.378;2023-06-10T03:39:51;8.23;;;7.35;;
49235;SDS011;35067;48.134;8.378;2023-06-10T03:40:52;8.20;;;7.00;;
49235;SDS011;35067;48.134;8.378;2023-06-10T03:41:53;9.13;;;7.37;;
49235;SDS011;35067;48.134;8.378;2023-06-10T03:42:53;8.37;;;7.40;;
49235;SDS011;35067;48.134;8.378;2023-06-10T03:43:55;8.10;;;7.30;;
49235;SDS011;35067;48.134;8.378;2023-06-10T03:44:57;9.23;;;7.40;;
49235;SDS011;35067;48.134;8.378;2023-06-10T03:45:58;8.80;;;8.00;;
49235;SDS011;35067;48.134;8.378;2023-06-10T03:46:59;8.33;;;6.60;;
49235;SDS011;35067;48.134;8.378;2023-06-10T03:48:01;7.43;;;6.65;;
49235;SDS011;35067;48.134;8.378;2023-06-10T03:49:03;10.32;;;7.32;;
49235;SDS011;35067;48.134;8.378;2023-06-10T03:50:04;8.20;;;7.07;;
49235;SDS011;35067;48.134;8.378;2023-06-10T03:51:06;7.53;;;6.82;;
49235;SDS011;35067;48.134;8.378;2023-06-10T03:52:07;7.73;;;7.03;;
49235;SDS011;35067;48.134;8.378;2023-06-10T03:53:08;7.33;;;6.33;;
49235;SDS011;35067;48.134;8.378;2023-06-10T03:54:08;7.57;;;6.83;;
49235;SDS011;35067;48.134;8.378;2023-06-10T03:55:10;7.88;;;7.07;;
49235;SDS011;35067;48.134;8.378;2023-06-10T03:56:11;9.00;;;7.80;;
49235;SDS011;35067;48.134;8.378;2023-06-10T03:57:12;7.47;;;6.73;;
49235;SDS011;35067;48.134;8.378;2023-06-10T03:58:13;7.47;;;6.57;;
49235;SDS011;35067;48.134;8.378;2023-06-10T03:59:14;7.88;;;7.07;;
49235;SDS011;35067;48.134;8.378;2023-06-10T04:00:15;7.90;;;7.10;;
49235;SDS011;35067;48.134;8.378;2023-06-10T04:01:17;7.45;;;6.63;;
49235;SDS011;35067;48.134;8.378;2023-06-10T04:02:20;7.50;;;6.80;;
49235;SDS011;35067;48.134;8.378;2023-06-10T04:03:22;6.90;;;6.20;;
49235;SDS011;35067;48.134;8.378;2023-06-10T04:04:23;7.38;;;6.63;;
49235;SDS011;35067;48.134;8.378;2023-06-10T04:05:25;8.57;;;7.47;;
49235;SDS011;35067;48.134;8.378;2023-06-10T04:06:25;7.87;;;6.80;;
49235;SDS011;35067;48.134;8.378;2023-06-10T04:07:29;7.47;;;6.70;;
49235;SDS011;35067;48.134;8.378;2023-06-10T04:08:30;8.18;;;7.38;;
49235;SDS011;35067;48.134;8.378;2023-06-10T04:09:32;7.38;;;6.68;;
49235;SDS011;35067;48.134;8.378;2023-06-10T04:10:33;7.30;;;6.57;;
49235;SDS011;35067;48.134;8.378;2023-06-10T04:11:34;7.17;;;6.30;;
49235;SDS011;35067;48.134;8.378;2023-06-10T04:12:36;8.25;;;7.00;;
49235;SDS011;35067;48.134;8.378;2023-06-10T04:13:37;7.28;;;6.57;;
49235;SDS011;35067;48.134;8.378;2023-06-10T04:14:38;7.53;;;6.83;;
49235;SDS011;35067;48.134;8.378;2023-06-10T04:15:40;7.97;;;7.18;;
49235;SDS011;35067;48.134;8.378;2023-06-10T04:16:41;7.43;;;6.57;;
49235;SDS011;35067;48.134;8.378;2023-06-10T04:17:42;7.88;;;7.10;;
49235;SDS011;35067;48.134;8.378;2023-06-10T04:18:43;9.07;;;6.65;;
49235;SDS011;35067;48.134;8.378;2023-06-10T04:19:44;7.47;;;6.47;;
49235;SDS011;35067;48.134;8.378;2023-06-10T04:20:47;7.78;;;7.07;;
49235;SDS011;35067;48.134;8.378;2023-06-10T04:21:48;9.23;;;6.88;;
49235;SDS011;35067;48.134;8.378;2023-06-10T04:22:49;8.10;;;7.30;;
49235;SDS011;35067;48.134;8.378;2023-06-10T04:23:51;7.63;;;6.82;;
49235;SDS011;35067;48.134;8.378;2023-06-10T04:24:52;8.63;;;7.83;;
49235;SDS011;35067;48.134;8.378;2023-06-10T04:25:53;8.10;;;7.15;;
49235;SDS011;35067;48.134;8.378;2023-06-10T04:26:54;7.57;;;6.83;;
49235;SDS011;35067;48.134;8.378;2023-06-10T04:27:54;11.23;;;7.00;;
49235;SDS011;35067;48.134;8.378;2023-06-10T04:28:55;8.10;;;7.10;;
49235;SDS011;35067;48.134;8.378;2023-06-10T04:29:56;7.43;;;6.73;;
49235;SDS011;35067;48.134;8.378;2023-06-10T04:30:56;7.57;;;6.87;;
49235;SDS011;35067;48.134;8.378;2023-06-10T04:31:58;7.50;;;6.70;;
49235;SDS011;35067;48.134;8.378;2023-06-10T04:33:00;8.48;;;7.60;;
49235;SDS011;35067;48.134;8.378;2023-06-10T04:34:02;8.38;;;7.50;;
49235;SDS011;35067;48.134;8.378;2023-06-10T04:35:02;7.23;;;6.53;;
49235;SDS011;35067;48.134;8.378;2023-06-10T04:36:05;7.97;;;7.18;;
49235;SDS011;35067;48.134;8.378;2023-06-10T04:37:07;8.15;;;7.35;;
49235;SDS011;35067;48.134;8.378;2023-06-10T04:38:07;7.93;;;7.13;;
49235;SDS011;35067;48.134;8.378;2023-06-10T04:39:09;7.93;;;7.10;;
49235;SDS011;35067;48.134;8.378;2023-06-10T04:40:10;7.32;;;6.50;;
49235;SDS011;35067;48.134;8.378;2023-06-10T04:41:11;8.65;;;7.43;;
49235;SDS011;35067;48.134;8.378;2023-06-10T04:42:12;7.73;;;6.93;;
49235;SDS011;35067;48.134;8.378;2023-06-10T04:43:13;7.90;;;6.83;;
49235;SDS011;35067;48.134;8.378;2023-06-10T04:44:13;8.27;;;6.97;;
49235;SDS011;35067;48.134;8.378;2023-06-10T04:45:14;8.77;;;7.00;;
49235;SDS011;35067;48.134;8.378;2023-06-10T04:46:15;8.10;;;6.67;;
49235;SDS011;35067;48.134;8.378;2023-06-10T04:47:15;8.17;;;7.03;;
49235;SDS011;35067;48.134;8.378;2023-06-10T04:48:17;8.35;;;7.55;;
49235;SDS011;35067;48.134;8.378;2023-06-10T04:49:18;7.80;;;7.10;;
49235;SDS011;35067;48.134;8.378;2023-06-10T04:50:18;9.10;;;7.87;;
49235;SDS011;35067;48.134;8.378;2023-06-10T04:51:20;7.35;;;6.68;;
49235;SDS011;35067;48.134;8.378;2023-06-10T04:52:21;8.43;;;7.47;;
49235;SDS011;35067;48.134;8.378;2023-06-10T04:53:22;8.25;;;7.07;;
49235;SDS011;35067;48.134;8.378;2023-06-10T04:54:23;8.43;;;7.10;;
49235;SDS011;35067;48.134;8.378;2023-06-10T04:55:23;8.23;;;7.17;;
49235;SDS011;35067;48.134;8.378;2023-06-10T04:56:26;8.70;;;7.90;;
49235;SDS011;35067;48.134;8.378;2023-06-10T04:57:27;8.70;;;7.80;;
49235;SDS011;35067;48.134;8.378;2023-06-10T04:58:27;8.47;;;7.63;;
49235;SDS011;35067;48.134;8.378;2023-06-10T04:59:28;10.33;;;8.33;;
49235;SDS011;35067;48.134;8.378;2023-06-10T05:00:30;8.60;;;7.72;;
49235;SDS011;35067;48.134;8.378;2023-06-10T05:01:30;9.57;;;8.47;;
49235;SDS011;35067;48.134;8.378;2023-06-10T05:02:31;8.53;;;7.40;;
49235;SDS011;35067;48.134;8.378;2023-06-10T05:03:33;9.13;;;8.10;;
49235;SDS011;35067;48.134;8.378;2023-06-10T05:04:34;10.05;;;8.00;;
49235;SDS011;35067;48.134;8.378;2023-06-10T05:05:34;8.57;;;7.67;;
49235;SDS011;35067;48.134;8.378;2023-06-10T05:06:35;9.23;;;8.30;;
49235;SDS011;35067;48.134;8.378;2023-06-10T05:07:36;8.35;;;7.55;;
49235;SDS011;35067;48.134;8.378;2023-06-10T05:08:38;8.77;;;7.60;;
49235;SDS011;35067;48.134;8.378;2023-06-10T05:09:39;9.30;;;8.40;;
49235;SDS011;35067;48.134;8.378;2023-06-10T05:10:40;9.50;;;8.50;;
49235;SDS011;35067;48.134;8.378;2023-06-10T05:11:42;8.95;;;8.00;;
49235;SDS011;35067;48.134;8.378;2023-06-10T05:12:43;9.37;;;8.23;;
49235;SDS011;35067;48.134;8.378;2023-06-10T05:13:43;8.50;;;7.70;;
49235;SDS011;35067;48.134;8.378;2023-06-10T05:14:44;9.43;;;7.87;;
49235;SDS011;35067;48.134;8.378;2023-06-10T05:15:46;9.90;;;8.07;;
49235;SDS011;35067;48.134;8.378;2023-06-10T05:16:47;9.13;;;8.23;;
49235;SDS011;35067;48.134;8.378;2023-06-10T05:17:48;8.88;;;7.97;;
49235;SDS011;35067;48.134;8.378;2023-06-10T05:18:50;8.85;;;8.02;;
49235;SDS011;35067;48.134;8.378;2023-06-10T05:19:52;10.98;;;8.13;;
49235;SDS011;35067;48.134;8.378;2023-06-10T05:20:53;8.80;;;8.00;;
49235;SDS011;35067;48.134;8.378;2023-06-10T05:21:54;9.50;;;8.05;;
49235;SDS011;35067;48.134;8.378;2023-06-10T05:22:55;9.07;;;7.47;;
49235;SDS011;35067;48.134;8.378;2023-06-10T05:23:55;10.77;;;7.97;;
49235;SDS011;35067;48.134;8.378;2023-06-10T05:24:57;8.48;;;7.68;;
49235;SDS011;35067;48.134;8.378;2023-06-10T05:25:57;9.27;;;8.37;;
49235;SDS011;35067;48.134;8.378;2023-06-10T05:26:59;9.15;;;8.25;;
49235;SDS011;35067;48.134;8.378;2023-06-10T05:28:00;8.50;;;7.63;;
49235;SDS011;35067;48.134;8.378;2023-06-10T05:29:02;8.93;;;7.55;;
49235;SDS011;35067;48.134;8.378;2023-06-10T05:30:04;9.55;;;8.60;;
49235;SDS011;35067;48.134;8.378;2023-06-10T05:31:07;9.02;;;7.97;;
49235;SDS011;35067;48.134;8.378;2023-06-10T05:32:08;9.57;;;8.07;;
49235;SDS011;35067;48.134;8.378;2023-06-10T05:33:09;9.33;;;7.87;;
49235;SDS011;35067;48.134;8.378;2023-06-10T05:34:09;8.60;;;7.80;;
49235;SDS011;35067;48.134;8.378;2023-06-10T05:35:10;9.20;;;8.00;;
49235;SDS011;35067;48.134;8.378;2023-06-10T05:36:11;8.70;;;7.83;;
49235;SDS011;35067;48.134;8.378;2023-06-10T05:37:12;9.67;;;8.33;;
49235;SDS011;35067;48.134;8.378;2023-06-10T05:38:14;8.75;;;7.95;;
49235;SDS011;35067;48.134;8.378;2023-06-10T05:39:14;10.87;;;8.43;;
49235;SDS011;35067;48.134;8.378;2023-06-10T05:40:15;9.77;;;8.77;;
49235;SDS011;35067;48.134;8.378;2023-06-10T05:41:16;9.17;;;8.23;;
49235;SDS011;35067;48.134;8.378;2023-06-10T05:42:18;9.57;;;8.20;;
49235;SDS011;35067;48.134;8.378;2023-06-10T05:43:19;9.43;;;8.53;;
49235;SDS011;35067;48.134;8.378;2023-06-10T05:44:19;8.93;;;8.03;;
49235;SDS011;35067;48.134;8.378;2023-06-10T05:45:21;9.32;;;8.32;;
49235;SDS011;35067;48.134;8.378;2023-06-10T05:46:22;8.88;;;8.07;;
49235;SDS011;35067;48.134;8.378;2023-06-10T05:47:23;8.35;;;7.60;;
49235;SDS011;35067;48.134;8.378;2023-06-10T05:48:25;8.88;;;8.00;;
49235;SDS011;35067;48.134;8.378;2023-06-10T05:49:25;8.43;;;7.63;;
49235;SDS011;35067;48.134;8.378;2023-06-10T05:50:27;8.85;;;7.88;;
49235;SDS011;35067;48.134;8.378;2023-06-10T05:51:27;9.30;;;8.40;;
49235;SDS011;35067;48.134;8.378;2023-06-10T05:52:28;8.07;;;7.30;;
49235;SDS011;35067;48.134;8.378;2023-06-10T05:53:29;7.85;;;7.15;;
49235;SDS011;35067;48.134;8.378;2023-06-10T05:54:32;8.57;;;6.97;;
49235;SDS011;35067;48.134;8.378;2023-06-10T05:55:33;9.50;;;7.27;;
49235;SDS011;35067;48.134;8.378;2023-06-10T05:56:34;9.82;;;7.25;;
49235;SDS011;35067;48.134;8.378;2023-06-10T05:57:35;7.30;;;6.53;;
49235;SDS011;35067;48.134;8.378;2023-06-10T05:58:36;7.87;;;7.07;;
49235;SDS011;35067;48.134;8.378;2023-06-10T05:59:37;7.70;;;6.83;;
49235;SDS011;35067;48.134;8.378;2023-06-10T06:00:38;9.02;;;8.23;;
49235;SDS011;35067;48.134;8.378;2023-06-10T06:01:40;8.45;;;6.68;;
49235;SDS011;35067;48.134;8.378;2023-06-10T06:02:40;8.97;;;7.17;;
49235;SDS011;35067;48.134;8.378;2023-06-10T06:03:41;7.90;;;7.10;;
49235;SDS011;35067;48.134;8.378;2023-06-10T06:04:42;10.70;;;7.50;;
49235;SDS011;35067;48.134;8.378;2023-06-10T06:05:44;6.90;;;6.20;;
49235;SDS011;35067;48.134;8.378;2023-06-10T06:06:46;7.55;;;6.85;;
49235;SDS011;35067;48.134;8.378;2023-06-10T06:07:46;8.10;;;7.03;;
49235;SDS011;35067;48.134;8.378;2023-06-10T06:08:47;7.63;;;6.37;;
49235;SDS011;35067;48.134;8.378;2023-06-10T06:09:48;8.77;;;7.97;;
49235;SDS011;35067;48.134;8.378;2023-06-10T06:10:49;8.43;;;7.60;;
49235;SDS011;35067;48.134;8.378;2023-06-10T06:11:50;8.02;;;6.93;;
49235;SDS011;35067;48.134;8.378;2023-06-10T06:12:51;7.47;;;6.77;;
49235;SDS011;35067;48.134;8.378;2023-06-10T06:13:52;7.37;;;6.20;;
49235;SDS011;35067;48.134;8.378;2023-06-10T06:14:53;9.05;;;6.40;;
49235;SDS011;35067;48.134;8.378;2023-06-10T06:15:54;7.53;;;6.60;;